createdAt,value
2022-07-30T00:00:25.159Z,8.35
2022-07-30T00:03:06.621Z,8.73
2022-07-30T00:05:34.378Z,8.02
2022-07-30T00:08:01.380Z,8.00
2022-07-30T00:10:28.400Z,7.90
2022-07-30T00:12:56.041Z,7.75
2022-07-30T00:15:23.384Z,7.43
2022-07-30T00:17:50.422Z,7.03
2022-07-30T00:20:18.458Z,8.02
2022-07-30T00:22:45.868Z,6.85
2022-07-30T00:25:12.967Z,7.90
2022-07-30T00:27:40.554Z,7.53
2022-07-30T00:30:08.135Z,7.05
2022-07-30T00:32:35.142Z,7.68
2022-07-30T00:35:03.175Z,7.57
2022-07-30T00:37:30.189Z,8.10
2022-07-30T00:39:57.181Z,7.78
2022-07-30T00:42:24.733Z,8.13
2022-07-30T00:44:55.258Z,8.30
2022-07-30T00:47:22.280Z,7.78
2022-07-30T00:49:49.782Z,7.90
2022-07-30T00:52:16.825Z,8.50
2022-07-30T00:54:43.837Z,8.20
2022-07-30T00:57:11.329Z,8.30
2022-07-30T00:59:38.322Z,8.68
2022-07-30T01:02:05.564Z,7.93
2022-07-30T01:04:33.168Z,8.50
2022-07-30T01:07:00.361Z,8.05
2022-07-30T01:09:27.602Z,7.95
2022-07-30T01:11:55.113Z,8.52
2022-07-30T01:14:23.379Z,7.57
2022-07-30T01:16:51.072Z,8.55
2022-07-30T01:19:24.531Z,8.35
2022-07-30T01:22:00.552Z,8.05
2022-07-30T01:24:38.517Z,7.47
2022-07-30T01:27:07.291Z,8.00
2022-07-30T01:29:36.166Z,7.63
2022-07-30T01:32:06.435Z,8.60
2022-07-30T01:34:35.962Z,8.23
2022-07-30T01:37:04.992Z,8.55
2022-07-30T01:39:32.670Z,8.70
2022-07-30T01:42:00.694Z,8.68
2022-07-30T01:44:28.957Z,8.95
2022-07-30T01:46:56.469Z,8.80
2022-07-30T01:49:25.216Z,9.13
2022-07-30T01:51:54.409Z,9.13
2022-07-30T01:54:24.099Z,8.60
2022-07-30T01:56:52.327Z,8.90
2022-07-30T01:59:21.647Z,8.68
2022-07-30T02:01:49.001Z,9.18
2022-07-30T02:04:16.156Z,9.70
2022-07-30T02:06:52.510Z,9.63
2022-07-30T02:09:23.493Z,9.23
2022-07-30T02:11:52.605Z,9.55
2022-07-30T02:14:26.551Z,8.63
2022-07-30T02:16:55.436Z,9.10
2022-07-30T02:19:32.728Z,8.93
2022-07-30T02:22:13.741Z,8.88
2022-07-30T02:24:43.917Z,9.88
2022-07-30T02:27:17.739Z,8.95
2022-07-30T02:29:46.883Z,9.27
2022-07-30T02:32:17.679Z,8.93
2022-07-30T02:34:51.916Z,8.88
2022-07-30T02:37:41.078Z,9.18
2022-07-30T02:40:10.708Z,10.45
2022-07-30T02:42:39.146Z,9.25
2022-07-30T02:45:07.137Z,9.02
2022-07-30T02:47:35.907Z,9.43
2022-07-30T02:50:05.298Z,9.80
2022-07-30T02:52:33.154Z,9.18
2022-07-30T02:55:02.454Z,9.25
2022-07-30T02:57:31.491Z,10.75
2022-07-30T02:59:59.641Z,10.52
2022-07-30T03:02:29.572Z,9.20
2022-07-30T03:04:58.812Z,8.85
2022-07-30T03:07:27.150Z,9.25
2022-07-30T03:09:56.127Z,8.05
2022-07-30T03:12:25.819Z,8.38
2022-07-30T03:14:52.929Z,7.85
2022-07-30T03:17:22.369Z,8.90
2022-07-30T03:19:50.454Z,8.95
2022-07-30T03:22:19.651Z,8.93
2022-07-30T03:24:49.354Z,9.25
2022-07-30T03:27:17.321Z,9.48
2022-07-30T03:29:45.112Z,9.70
2022-07-30T03:32:13.672Z,9.50
2022-07-30T03:34:43.773Z,9.25
2022-07-30T03:37:11.347Z,9.20
2022-07-30T03:39:40.157Z,9.35
2022-07-30T03:42:08.764Z,9.45
2022-07-30T03:44:36.585Z,9.23
2022-07-30T03:47:05.653Z,9.50
2022-07-30T03:49:33.715Z,9.52
2022-07-30T03:52:02.440Z,8.98
2022-07-30T03:54:32.369Z,9.40
2022-07-30T03:57:01.860Z,10.20
2022-07-30T03:59:29.945Z,11.27
2022-07-30T04:02:03.927Z,11.48
2022-07-30T04:04:34.615Z,11.20
2022-07-30T04:07:02.099Z,11.50
2022-07-30T04:09:29.307Z,11.00
2022-07-30T04:11:56.739Z,12.05
2022-07-30T04:14:23.958Z,11.35
2022-07-30T04:16:59.318Z,12.45
2022-07-30T04:19:40.213Z,12.30
2022-07-30T04:22:09.038Z,11.68
2022-07-30T04:24:38.676Z,12.93
2022-07-30T04:27:06.586Z,12.30
2022-07-30T04:29:34.513Z,12.50
2022-07-30T04:32:02.026Z,12.63
2022-07-30T04:34:29.094Z,13.07
2022-07-30T04:36:56.192Z,12.25
2022-07-30T04:39:23.603Z,12.25
2022-07-30T04:41:50.685Z,13.75
2022-07-30T04:44:20.779Z,13.00
2022-07-30T04:46:48.510Z,12.48
2022-07-30T04:49:17.938Z,12.93
2022-07-30T04:51:45.776Z,12.10
2022-07-30T04:54:15.540Z,11.55
2022-07-30T04:56:52.433Z,12.93
2022-07-30T04:59:24.843Z,13.20
2022-07-30T05:01:53.610Z,12.85
2022-07-30T05:04:23.836Z,13.10
2022-07-30T05:06:52.378Z,12.35
2022-07-30T05:09:20.077Z,12.98
2022-07-30T05:11:54.185Z,12.38
2022-07-30T05:14:23.429Z,12.88
2022-07-30T05:16:51.239Z,13.10
2022-07-30T05:19:20.034Z,13.52
2022-07-30T05:21:47.856Z,14.32
2022-07-30T05:24:15.443Z,12.43
2022-07-30T05:26:42.637Z,13.25
2022-07-30T05:29:19.472Z,11.98
2022-07-30T05:31:47.077Z,12.32
2022-07-30T05:34:14.390Z,12.93
2022-07-30T05:36:41.394Z,12.02
2022-07-30T05:39:08.487Z,13.32
2022-07-30T05:41:35.855Z,13.38
2022-07-30T05:44:02.882Z,14.48
2022-07-30T05:46:29.923Z,12.65
2022-07-30T05:48:57.447Z,14.27
2022-07-30T05:51:24.450Z,12.93
2022-07-30T05:53:51.472Z,14.32
2022-07-30T05:56:18.933Z,14.13
2022-07-30T05:58:45.975Z,15.63
2022-07-30T06:01:13.021Z,18.55
2022-07-30T06:03:40.509Z,18.02
2022-07-30T06:06:07.858Z,18.52
2022-07-30T06:08:35.601Z,16.67
2022-07-30T06:11:03.120Z,16.50
2022-07-30T06:13:30.190Z,16.52
2022-07-30T06:15:57.282Z,17.77
2022-07-30T06:18:24.710Z,15.88
2022-07-30T06:20:52.842Z,15.88
2022-07-30T06:23:21.367Z,15.23
2022-07-30T06:25:50.069Z,14.30
2022-07-30T06:28:36.912Z,15.02
2022-07-30T06:31:06.099Z,14.65
2022-07-30T06:33:33.344Z,16.88
2022-07-30T06:36:00.394Z,14.90
2022-07-30T06:38:28.041Z,14.13
2022-07-30T06:40:59.202Z,13.13
2022-07-30T06:43:29.705Z,12.27
2022-07-30T06:45:56.750Z,11.88
2022-07-30T06:48:23.915Z,10.38
2022-07-30T06:50:51.594Z,10.52
2022-07-30T06:53:18.688Z,9.43
2022-07-30T06:55:45.655Z,10.02
2022-07-30T06:58:13.451Z,10.20
2022-07-30T07:00:40.507Z,10.13
2022-07-30T07:03:11.539Z,11.02
2022-07-30T07:05:39.467Z,9.57
2022-07-30T07:08:06.700Z,9.52
2022-07-30T07:10:33.725Z,9.00
2022-07-30T07:13:01.145Z,14.90
2022-07-30T07:15:36.086Z,9.07
2022-07-30T07:18:04.895Z,8.75
2022-07-30T07:20:35.704Z,8.88
2022-07-30T07:23:08.953Z,8.75
2022-07-30T07:25:37.284Z,8.85
2022-07-30T07:28:12.661Z,9.18
2022-07-30T07:30:43.674Z,8.32
2022-07-30T07:33:11.144Z,9.15
2022-07-30T07:35:41.151Z,7.38
2022-07-30T07:38:18.625Z,7.63
2022-07-30T07:40:46.353Z,8.05
2022-07-30T07:43:13.861Z,9.13
2022-07-30T07:45:42.643Z,8.77
2022-07-30T07:48:10.042Z,8.50
2022-07-30T07:50:37.121Z,8.32
2022-07-30T07:53:05.195Z,8.05
2022-07-30T07:55:33.584Z,7.72
2022-07-30T07:58:01.239Z,7.97
2022-07-30T08:00:29.576Z,8.48
2022-07-30T08:02:56.617Z,8.23
2022-07-30T08:05:24.324Z,8.32
2022-07-30T08:07:52.032Z,8.90
2022-07-30T08:10:19.126Z,6.82
2022-07-30T08:12:46.220Z,7.63
2022-07-30T08:15:15.458Z,6.47
2022-07-30T08:17:45.771Z,7.22
2022-07-30T08:20:15.127Z,6.60
2022-07-30T08:22:43.026Z,6.88
2022-07-30T08:25:10.499Z,7.50
2022-07-30T08:27:37.796Z,6.97
2022-07-30T08:30:08.940Z,8.10
2022-07-30T08:32:36.464Z,6.78
2022-07-30T08:35:05.367Z,6.00
2022-07-30T08:37:32.937Z,6.30
2022-07-30T08:39:59.964Z,8.23
2022-07-30T08:42:27.846Z,6.03
2022-07-30T08:44:56.668Z,5.65
2022-07-30T08:47:32.626Z,5.43
2022-07-30T08:50:01.264Z,6.00
2022-07-30T08:52:29.079Z,5.65
2022-07-30T08:54:57.786Z,5.47
2022-07-30T08:57:25.690Z,5.68
2022-07-30T09:00:00.108Z,5.35
2022-07-30T09:02:31.641Z,5.88
2022-07-30T09:04:58.842Z,5.70
2022-07-30T09:07:25.872Z,5.43
2022-07-30T09:09:53.488Z,5.55
2022-07-30T09:12:40.362Z,5.28
2022-07-30T09:15:15.525Z,5.32
2022-07-30T09:17:54.770Z,5.72
2022-07-30T09:20:28.123Z,5.10
2022-07-30T09:22:58.066Z,5.50
2022-07-30T09:25:54.928Z,5.75
2022-07-30T09:28:30.685Z,5.45
2022-07-30T09:30:58.908Z,5.13
2022-07-30T09:33:36.781Z,5.47
2022-07-30T09:36:11.099Z,5.45
2022-07-30T09:38:49.355Z,5.10
2022-07-30T09:41:37.746Z,5.53
2022-07-30T09:44:06.275Z,4.70
2022-07-30T09:46:48.155Z,5.43
2022-07-30T09:49:16.960Z,5.40
2022-07-30T09:52:06.737Z,5.55
2022-07-30T09:54:51.674Z,5.18
2022-07-30T09:57:25.850Z,5.78
2022-07-30T09:59:56.911Z,5.70
2022-07-30T10:02:34.097Z,5.35
2022-07-30T10:05:14.123Z,5.90
2022-07-30T10:08:01.069Z,6.25
2022-07-30T10:10:31.290Z,5.93
2022-07-30T10:13:01.012Z,5.75
2022-07-30T10:15:30.871Z,5.82
2022-07-30T10:18:01.355Z,5.88
2022-07-30T10:20:29.239Z,5.82
2022-07-30T10:22:57.139Z,5.60
2022-07-30T10:25:28.167Z,5.47
2022-07-30T10:27:58.052Z,5.15
2022-07-30T10:30:27.965Z,5.88
2022-07-30T10:32:58.311Z,5.72
2022-07-30T10:35:34.478Z,5.57
2022-07-30T10:38:13.939Z,5.07
2022-07-30T10:41:07.277Z,5.00
2022-07-30T10:43:53.510Z,4.55
2022-07-30T10:46:22.858Z,4.97
2022-07-30T10:48:50.918Z,4.50
2022-07-30T10:51:25.452Z,4.75
2022-07-30T10:54:02.127Z,4.65
2022-07-30T10:56:29.418Z,4.32
2022-07-30T10:59:26.009Z,4.60
2022-07-30T11:01:59.020Z,4.20
2022-07-30T11:04:29.546Z,4.40
2022-07-30T11:07:23.546Z,4.53
2022-07-30T11:10:09.401Z,4.20
2022-07-30T11:12:44.185Z,4.57
2022-07-30T11:15:18.457Z,4.80
2022-07-30T11:18:03.197Z,5.07
2022-07-30T11:20:32.945Z,5.05
2022-07-30T11:23:36.404Z,4.60
2022-07-30T11:26:04.591Z,4.50
2022-07-30T11:28:46.101Z,4.75
2022-07-30T11:32:07.567Z,4.95
2022-07-30T11:34:19.953Z,5.15
2022-07-30T11:37:19.286Z,4.95
2022-07-30T11:39:56.054Z,4.82
2022-07-30T11:44:51.702Z,4.82
2022-07-30T11:47:19.279Z,5.03
2022-07-30T11:49:46.725Z,4.65
2022-07-30T11:52:22.435Z,6.07
2022-07-30T11:54:55.951Z,5.68
2022-07-30T11:57:40.257Z,5.70
2022-07-30T12:00:08.411Z,6.55
2022-07-30T12:02:35.930Z,6.35
2022-07-30T12:05:03.319Z,6.85
2022-07-30T12:07:30.676Z,6.53
2022-07-30T12:10:30.150Z,6.63
2022-07-30T12:13:12.759Z,6.90
2022-07-30T12:15:48.709Z,6.55
2022-07-30T12:18:30.452Z,6.80
2022-07-30T12:21:08.272Z,6.90
2022-07-30T12:23:36.253Z,7.70
2022-07-30T12:26:04.885Z,6.35
2022-07-30T12:28:34.207Z,6.25
2022-07-30T12:31:02.024Z,6.05
2022-07-30T12:33:29.437Z,5.63
2022-07-30T12:35:59.331Z,5.05
2022-07-30T12:38:28.118Z,4.38
2022-07-30T12:40:58.117Z,4.97
2022-07-30T12:43:48.449Z,5.10
2022-07-30T12:46:21.180Z,4.43
2022-07-30T12:49:05.161Z,4.30
2022-07-30T12:51:52.639Z,3.80
2022-07-30T12:54:28.519Z,4.05
2022-07-30T12:57:05.458Z,3.63
2022-07-30T12:59:33.546Z,3.70
2022-07-30T13:02:01.103Z,3.35
2022-07-30T13:04:28.414Z,3.33
2022-07-30T13:07:05.313Z,2.90
2022-07-30T13:09:32.976Z,3.22
2022-07-30T13:12:00.053Z,3.72
2022-07-30T13:14:27.636Z,3.42
2022-07-30T13:16:55.857Z,3.72
2022-07-30T13:19:22.991Z,4.78
2022-07-30T13:21:50.239Z,6.35
2022-07-30T13:24:18.765Z,4.22
2022-07-30T13:26:46.618Z,4.38
2022-07-30T13:29:13.726Z,5.18
2022-07-30T13:31:42.818Z,5.25
2022-07-30T13:34:11.603Z,5.32
2022-07-30T13:36:39.084Z,5.32
2022-07-30T13:39:06.546Z,6.10
2022-07-30T13:41:34.745Z,7.70
2022-07-30T13:44:02.226Z,9.57
2022-07-30T13:46:29.755Z,9.85
2022-07-30T13:48:57.032Z,6.25
2022-07-30T13:51:24.265Z,6.15
2022-07-30T13:53:51.844Z,6.10
2022-07-30T13:56:19.671Z,6.32
2022-07-30T13:58:47.587Z,5.65
2022-07-30T14:01:15.871Z,6.57
2022-07-30T14:03:50.188Z,6.20
2022-07-30T14:06:19.525Z,5.80
2022-07-30T14:08:46.693Z,5.53
2022-07-30T14:11:14.252Z,5.47
2022-07-30T14:13:41.765Z,6.18
2022-07-30T14:16:28.530Z,5.50
2022-07-30T14:18:56.636Z,6.72
2022-07-30T14:21:23.714Z,6.38
2022-07-30T14:23:50.713Z,7.07
2022-07-30T14:26:18.440Z,7.18
2022-07-30T14:28:45.450Z,6.38
2022-07-30T14:31:12.517Z,6.25
2022-07-30T14:33:40.069Z,5.85
2022-07-30T14:36:07.194Z,5.63
2022-07-30T14:38:34.190Z,4.60
2022-07-30T14:41:01.879Z,3.92
2022-07-30T14:43:28.899Z,4.00
2022-07-30T14:45:55.882Z,3.53
2022-07-30T14:48:23.453Z,3.55
2022-07-30T14:51:12.360Z,2.88
2022-07-30T14:53:38.246Z,3.03
2022-07-30T14:56:05.747Z,2.63
2022-07-30T14:58:32.795Z,2.47
2022-07-30T15:01:15.623Z,6.35
2022-07-30T15:03:43.460Z,2.70
2022-07-30T15:06:11.293Z,2.60
2022-07-30T15:08:38.634Z,2.40
2022-07-30T15:11:05.951Z,2.90
2022-07-30T15:13:35.772Z,2.38
2022-07-30T15:16:03.558Z,1.95
2022-07-30T15:18:30.558Z,1.70
2022-07-30T15:20:58.968Z,1.60
2022-07-30T15:23:26.078Z,1.90
2022-07-30T15:25:53.365Z,1.38
2022-07-30T15:28:21.118Z,1.50
2022-07-30T15:30:49.320Z,1.58
2022-07-30T15:33:16.376Z,1.10
2022-07-30T15:35:43.912Z,1.20
2022-07-30T15:38:10.913Z,1.30
2022-07-30T15:40:37.994Z,1.30
2022-07-30T15:43:10.081Z,1.40
2022-07-30T15:45:52.336Z,1.77
2022-07-30T15:48:26.840Z,1.67
2022-07-30T15:51:04.829Z,1.50
2022-07-30T15:53:33.595Z,2.40
2022-07-30T15:56:00.804Z,1.90
2022-07-30T15:58:27.917Z,1.83
2022-07-30T16:00:55.652Z,2.38
2022-07-30T16:03:22.972Z,1.98
2022-07-30T16:05:51.138Z,2.20
2022-07-30T16:08:20.506Z,1.35
2022-07-30T16:10:48.208Z,1.70
2022-07-30T16:13:15.767Z,1.45
2022-07-30T16:15:43.615Z,1.60
2022-07-30T16:18:10.765Z,1.58
2022-07-30T16:20:37.794Z,1.73
2022-07-30T16:23:09.146Z,1.42
2022-07-30T16:25:39.630Z,1.92
2022-07-30T16:28:07.346Z,1.50
2022-07-30T16:30:34.347Z,1.30
2022-07-30T16:33:01.614Z,1.40
2022-07-30T16:35:29.220Z,1.40
2022-07-30T16:37:56.237Z,1.63
2022-07-30T16:40:23.256Z,1.58
2022-07-30T16:42:52.857Z,1.48
2022-07-30T16:45:19.844Z,1.42
2022-07-30T16:47:46.974Z,1.23
2022-07-30T16:50:15.146Z,1.63
2022-07-30T16:52:42.171Z,1.65
2022-07-30T16:55:09.345Z,1.67
2022-07-30T16:57:37.166Z,2.00
2022-07-30T17:00:06.624Z,2.20
2022-07-30T17:02:33.749Z,2.38
2022-07-30T17:05:01.509Z,2.38
2022-07-30T17:07:28.551Z,2.10
2022-07-30T17:09:55.738Z,2.65
2022-07-30T17:12:27.115Z,2.55
2022-07-30T17:14:54.829Z,2.30
2022-07-30T17:17:21.908Z,1.98
2022-07-30T17:19:49.713Z,2.60
2022-07-30T17:22:16.718Z,2.20
2022-07-30T17:24:43.772Z,2.88
2022-07-30T17:27:11.338Z,2.10
2022-07-30T17:29:49.772Z,3.75
2022-07-30T17:32:19.534Z,2.50
2022-07-30T17:34:47.675Z,2.72
2022-07-30T17:37:15.201Z,3.97
2022-07-30T17:40:29.820Z,2.72
2022-07-30T17:42:30.152Z,2.90
2022-07-30T17:44:57.730Z,2.80
2022-07-30T17:47:24.708Z,3.30
2022-07-30T17:49:51.722Z,2.85
2022-07-30T17:52:22.287Z,3.70
2022-07-30T17:54:53.060Z,2.60
2022-07-30T17:57:20.738Z,2.67
2022-07-30T17:59:47.878Z,2.80
2022-07-30T18:02:14.949Z,2.90
2022-07-30T18:04:42.629Z,3.28
2022-07-30T18:07:09.762Z,3.00
2022-07-30T18:09:39.961Z,3.40
2022-07-30T18:12:08.421Z,3.75
2022-07-30T18:14:35.667Z,4.18
2022-07-30T18:17:02.868Z,4.10
2022-07-30T18:19:30.592Z,4.22
2022-07-30T18:21:58.107Z,3.42
2022-07-30T18:24:30.529Z,3.20
2022-07-30T18:26:57.911Z,3.20
2022-07-30T18:29:25.060Z,3.08
2022-07-30T18:31:52.309Z,2.75
2022-07-30T18:34:19.561Z,2.60
2022-07-30T18:36:46.590Z,2.50
2022-07-30T18:39:13.884Z,2.50
2022-07-30T18:41:41.234Z,2.50
2022-07-30T18:44:08.630Z,2.88
2022-07-30T18:46:35.987Z,2.50
2022-07-30T18:49:15.449Z,2.38
2022-07-30T18:51:50.732Z,2.42
2022-07-30T18:54:18.032Z,2.28
2022-07-30T18:56:45.047Z,2.28
2022-07-30T18:59:12.366Z,2.25
2022-07-30T19:01:39.622Z,1.90
2022-07-30T19:04:06.824Z,1.90
2022-07-30T19:06:34.609Z,2.08
2022-07-30T19:09:02.121Z,1.70
2022-07-30T19:11:29.183Z,1.65
2022-07-30T19:13:56.470Z,2.08
2022-07-30T19:16:23.702Z,1.45
2022-07-30T19:18:50.726Z,1.50
2022-07-30T19:21:18.019Z,1.70
2022-07-30T19:23:45.335Z,1.70
2022-07-30T19:26:13.201Z,1.80
2022-07-30T19:28:40.631Z,1.60
2022-07-30T19:31:07.757Z,2.13
2022-07-30T19:33:34.768Z,1.88
2022-07-30T19:36:02.183Z,1.90
2022-07-30T19:38:29.390Z,2.40
2022-07-30T19:40:57.465Z,2.50
2022-07-30T19:43:24.866Z,2.92
2022-07-30T19:45:52.538Z,2.22
2022-07-30T19:48:29.496Z,2.72
2022-07-30T19:51:00.821Z,2.55
2022-07-30T19:53:31.600Z,2.85
2022-07-30T19:58:31.403Z,2.83
2022-07-30T20:00:59.990Z,2.40
2022-07-30T20:03:30.811Z,3.00
2022-07-30T20:06:00.154Z,3.15
2022-07-30T20:08:28.157Z,3.03
2022-07-30T20:10:57.788Z,2.97
2022-07-30T20:13:44.065Z,2.92
2022-07-30T20:16:14.895Z,3.05
2022-07-30T20:18:43.101Z,2.92
2022-07-30T20:23:59.799Z,3.10
2022-07-30T20:26:29.196Z,3.45
2022-07-30T20:28:56.328Z,3.42
2022-07-30T20:31:26.840Z,3.42
2022-07-30T20:33:55.027Z,5.10
2022-07-30T20:36:22.267Z,4.97
2022-07-30T20:38:49.927Z,3.95
2022-07-30T20:41:18.185Z,4.50
2022-07-30T20:43:52.040Z,4.45
2022-07-30T20:46:23.133Z,4.07
2022-07-30T20:48:51.777Z,4.80
2022-07-30T20:51:19.161Z,4.50
2022-07-30T20:53:49.439Z,4.60
2022-07-30T20:56:16.757Z,3.88
2022-07-30T20:58:48.221Z,4.72
2022-07-30T21:01:17.555Z,3.92
2022-07-30T21:03:47.624Z,3.60
2022-07-30T21:06:16.307Z,3.40
2022-07-30T21:08:43.840Z,3.40
2022-07-30T21:11:12.544Z,3.20
2022-07-30T21:13:41.363Z,3.80
2022-07-30T21:16:15.395Z,3.35
2022-07-30T21:18:48.241Z,3.17
2022-07-30T21:21:29.118Z,3.10
2022-07-30T21:24:05.455Z,3.80
2022-07-30T21:26:33.758Z,3.75
2022-07-30T21:29:01.174Z,3.42
2022-07-30T21:31:59.057Z,4.07
2022-07-30T21:34:15.919Z,3.20
2022-07-30T21:36:43.311Z,3.63
2022-07-30T21:41:57.880Z,3.30
2022-07-30T21:44:25.188Z,3.63
2022-07-30T21:46:52.521Z,3.70
2022-07-30T21:49:21.676Z,3.88
2022-07-30T21:51:48.857Z,3.55
2022-07-30T21:54:28.482Z,3.90
2022-07-30T21:56:56.512Z,4.13
2022-07-30T21:59:27.855Z,3.85
2022-07-30T22:01:55.688Z,4.50
2022-07-30T22:04:23.495Z,3.70
2022-07-30T22:06:51.301Z,3.50
2022-07-30T22:09:33.208Z,3.65
2022-07-30T22:12:09.192Z,3.63
2022-07-30T22:14:38.905Z,3.30
2022-07-30T22:17:06.371Z,3.25
2022-07-30T22:22:26.726Z,3.55
2022-07-30T22:24:55.007Z,3.45
2022-07-30T22:27:24.551Z,3.28
2022-07-30T22:29:55.671Z,3.35
2022-07-30T22:32:24.119Z,3.50
2022-07-30T22:34:51.787Z,3.45
2022-07-30T22:37:21.569Z,3.80
2022-07-30T22:39:52.053Z,3.47
2022-07-30T22:42:24.489Z,3.88
2022-07-30T22:44:52.556Z,3.70
2022-07-30T22:47:21.691Z,3.67
2022-07-30T22:50:08.225Z,4.18
2022-07-30T22:52:39.552Z,3.95
2022-07-30T22:55:10.300Z,3.88
2022-07-30T22:57:40.211Z,4.50
2022-07-30T23:00:10.879Z,4.25
2022-07-30T23:02:42.999Z,5.43
2022-07-30T23:05:10.801Z,4.60
2022-07-30T23:07:39.544Z,4.97
2022-07-30T23:10:17.226Z,4.00
2022-07-30T23:12:17.922Z,2.88
2022-07-30T23:12:27.580Z,3.28
2022-07-30T23:12:57.672Z,4.40
2022-07-30T23:15:24.877Z,4.50
2022-07-30T23:17:51.872Z,4.88
2022-07-30T23:20:20.716Z,4.85
2022-07-30T23:22:48.739Z,4.32
2022-07-30T23:25:15.911Z,4.55
2022-07-30T23:27:43.882Z,5.00
2022-07-30T23:30:11.944Z,4.60
2022-07-30T23:32:39.550Z,4.32
2022-07-30T23:35:08.591Z,4.43
2022-07-30T23:37:47.827Z,4.80
2022-07-30T23:40:18.129Z,4.43
2022-07-30T23:42:45.661Z,4.80
2022-07-30T23:45:12.694Z,4.50
2022-07-30T23:48:01.308Z,4.55
2022-07-30T23:50:27.336Z,4.75
2022-07-30T23:52:54.674Z,4.38
2022-07-30T23:55:21.798Z,4.72
2022-07-30T23:57:48.935Z,4.63
